Архив погоды в Белозерске

Метеограмма Белозерск
Вторник, 22 Мая
Время местн. Темп Ветер Видим Явления Облачность нижн/средн/верх Атм. давл. Влжн Точка росы ВНГО R Сост. почвы Tg s
Напр Скр Прв ур.ст ур.м изм
21:00 +17.8° Ю 3 - 10 км - преимущественно облачно 756 768 -0.8 40% +4° 1.5 км - - - -
18:00 +22.1° Ю 6 10 10 км - переменная облачность 757 768 -1.1 27% +2.2° более 2.5 км - - - -
15:00 +24.2° Ю,Ю-З 4 - 10 км - ясно 758 770 -1.6 27% +4° более 2.5 км - - - -
12:00 +24.1° Ю 2 - 10 км - ясно 760 771 -0.7 27% +3.9° более 2.5 км - - - -
09:00 +21.6° Ю-З 3 - 10 км - ясно 760 772 +0.2 33% +4.6° более 2.5 км - - - -
06:00 +10.9° Ю 2 - 10 км - ясно 760 772 +0.2 77% +7° более 2.5 км - Влажная (без луж) - -
03:00 +9.4° Ю 2 - 10 км - ясно 760 772 +0.4 75% +5.2° более 2.5 км - - - -
00:00 +12° Ю 2 - 10 км - ясно 760 771 +0.5 63% +5.2° более 2.5 км - - - -
Понедельник, 21 Мая
Время местн. Темп Ветер Видим Явления Облачность нижн/средн/верх Атм. давл. Влжн Точка росы ВНГО R Сост. почвы Tg s
Напр Скр Прв ур.ст ур.м изм
21:00 +15.5° Ю 1 - 10 км - ясно 759 771 +0.1 60% +7.8° более 2.5 км - - - -
18:00 +22.7° С 1 - 10 км - ясно 759 771 -0.7 24% +1.1° более 2.5 км - - - -
15:00 +21.7° С 2 - 10 км - незначительная облачность 760 771 -0.5 28% +2.4° 1.5 км - - - -
12:00 +20.1° С 2 - 10 км - незначительная облачность 760 772 +0.4 28% +1° 1.5 км - - - -
09:00 +15.3° С 1 - 10 км - ясно 760 772 +1 49% +4.6° более 2.5 км - - - -
06:00 +9.7° Ю,Ю-З 1 - 10 км - переменная облачность 759 771 +1 68% +4.1° - - Влажная (без луж) - -
03:00 +5.9° Ю 2 - 10 км - переменная облачность 758 770 +0.8 74% +1.6° - - - - -
00:00 +6.5° Ю 2 - 10 км - незначительная облачность 757 769 +0.8 75% +2.4° - - - - -
Воскресенье, 20 Мая
Время местн. Темп Ветер Видим Явления Облачность нижн/средн/верх Атм. давл. Влжн Точка росы ВНГО R Сост. почвы Tg s
Напр Скр Прв ур.ст ур.м изм
21:00 +10.9° Ю-З 1 - 10 км - переменная облачность 756 768 +0.5 65% +4.6° более 2.5 км - - - -
18:00 +17° З,С-З 2 - 10 км - ясно 756 768 0 34% +1° более 2.5 км - - - -
15:00 +15.9° С,С-З 2 - 10 км - незначительная облачность 756 768 +0.1 36% +0.7° более 2.5 км - - - -
12:00 +11.5° С-З 3 - 10 км - переменная облачность 756 768 +0.5 45% более 2.5 км - - - -
09:00 +8.4° С 3 - 10 км - ясно 755 767 +1.7 57% +0.5° более 2.5 км - - - -
06:00 +6.2° С 3 - 10 км - незначительная облачность 754 766 +1.3 71% +1.3° 1.5 км - Влажная (без луж) - -
03:00 +5.8° С,С-В 3 - 10 км - облачно 752 764 +1.3 67% +0.1° 1.5 км - - - -
00:00 +6.8° С 4 - 10 км - облачно 751 763 +1.2 65% +0.7° 1.5 км - - - -
Суббота, 19 Мая
Время местн. Темп Ветер Видим Явления Облачность нижн/средн/верх Атм. давл. Влжн Точка росы ВНГО R Сост. почвы Tg s
Напр Скр Прв ур.ст ур.м изм
21:00 +8° С 5 - 10 км - облачно 750 762 +2 72% +3.3° 1 км - - - -
18:00 +10° С 5 10 10 км - облачно 748 760 +1.5 71% +5° 1 км - - - -